Time;durP1;ratioP1;P1;durP2;ratioP2;P2;SDS_P1;SDS_P2;PMS_P1;PMS_P2;Temp;Humidity;BMP_temperature;BMP_pressure;BME280_temperature;BME280_humidity;BME280_pressure;Samples;Min_cycle;Max_cycle;Signal;HPM_P1;HPM_P2
2021/04/09 00:02:10;;;;;;;15.20;11.02;;;6.30;71.20;;;;;;4993471;28;20023;-71
2021/04/09 00:04:36;;;;;;;17.95;9.88;;;6.30;71.40;;;;;;4994514;28;20018;-69
2021/04/09 00:07:02;;;;;;;14.00;10.10;;;6.30;71.30;;;;;;4993044;28;20026;-70
2021/04/09 00:09:27;;;;;;;15.82;11.43;;;6.30;71.30;;;;;;4993880;28;20033;-69
2021/04/09 00:11:54;;;;;;;13.95;9.75;;;6.30;71.80;;;;;;4993839;28;20031;-69
2021/04/09 00:14:19;;;;;;;12.15;10.27;;;6.30;71.60;;;;;;4993058;28;20080;-67
2021/04/09 00:16:45;;;;;;;18.08;10.52;;;6.30;71.60;;;;;;4993054;28;20026;-67
2021/04/09 00:19:21;;;;;;;15.80;10.80;;;6.20;71.50;;;;;;4994388;28;20034;-69
2021/04/09 00:21:47;;;;;;;18.05;11.57;;;6.20;71.80;;;;;;4992374;28;20022;-69
2021/04/09 00:24:13;;;;;;;15.57;11.02;;;6.20;71.60;;;;;;4993808;28;20018;-69
2021/04/09 00:26:39;;;;;;;16.52;10.85;;;6.20;72.00;;;;;;4992679;28;20112;-68
2021/04/09 00:29:05;;;;;;;19.08;11.20;;;6.10;71.80;;;;;;4993903;28;20034;-69
2021/04/09 00:31:32;;;;;;;14.80;10.13;;;6.10;72.40;;;;;;4992042;28;20351;-69
2021/04/09 00:33:58;;;;;;;15.73;10.88;;;6.10;72.60;;;;;;4993793;28;20040;-68
2021/04/09 00:36:24;;;;;;;20.15;11.88;;;6.00;72.70;;;;;;4994105;28;20030;-69
2021/04/09 00:38:50;;;;;;;16.17;11.68;;;6.00;72.70;;;;;;4992679;28;20608;-68
2021/04/09 00:41:16;;;;;;;13.65;10.50;;;6.00;72.70;;;;;;4993908;28;20014;-66
2021/04/09 00:43:42;;;;;;;18.52;11.18;;;6.00;72.90;;;;;;4993827;28;20026;-66
2021/04/09 00:46:08;;;;;;;13.95;10.02;;;5.90;73.10;;;;;;4992492;28;20033;-68
2021/04/09 00:48:34;;;;;;;15.88;10.63;;;5.90;73.00;;;;;;4993960;28;20045;-68
2021/04/09 00:50:59;;;;;;;13.40;10.80;;;5.90;73.20;;;;;;4993323;28;20030;-69
2021/04/09 00:53:27;;;;;;;14.63;11.07;;;5.90;73.20;;;;;;4993047;28;20508;-68
2021/04/09 00:55:54;;;;;;;19.35;11.63;;;5.90;73.30;;;;;;4993206;28;20073;-70
2021/04/09 00:58:20;;;;;;;15.80;10.88;;;5.90;73.80;;;;;;4992934;28;20033;-69
2021/04/09 01:00:45;;;;;;;16.48;11.82;;;5.90;74.00;;;;;;4993128;28;20031;-70
2021/04/09 01:03:11;;;;;;;18.75;12.10;;;5.90;74.10;;;;;;4993484;28;20079;-66
2021/04/09 01:05:37;;;;;;;15.45;10.88;;;5.90;74.30;;;;;;4991436;28;20109;-67
2021/04/09 01:08:06;;;;;;;14.63;10.77;;;5.90;74.80;;;;;;4991731;28;20516;-67
2021/04/09 01:10:32;;;;;;;20.33;11.50;;;5.90;74.40;;;;;;4993383;28;20026;-68
2021/04/09 01:12:57;;;;;;;16.23;11.75;;;5.90;74.60;;;;;;4992214;28;20111;-69
2021/04/09 01:15:24;;;;;;;16.27;12.18;;;5.90;74.90;;;;;;4993109;28;20482;-67
2021/04/09 01:17:55;;;;;;;13.98;10.85;;;5.90;75.30;;;;;;4991607;28;20080;-66
2021/04/09 01:20:42;;;;;;;16.23;11.32;;;5.90;75.30;;;;;;4992674;28;20042;-66
2021/04/09 01:23:41;;;;;;;16.58;12.00;;;5.80;75.30;;;;;;4991759;28;20121;-66
2021/04/09 01:26:29;;;;;;;17.55;12.02;;;5.80;75.10;;;;;;4991942;28;20109;-67
2021/04/09 01:29:10;;;;;;;15.30;12.40;;;5.80;75.50;;;;;;4992807;28;20060;-65
2021/04/09 01:31:46;;;;;;;16.90;12.80;;;5.80;75.60;;;;;;4993181;28;20062;-66
2021/04/09 01:34:12;;;;;;;17.25;11.00;;;5.80;76.20;;;;;;4992431;28;20280;-65
2021/04/09 01:36:47;;;;;;;17.67;11.75;;;5.80;76.00;;;;;;4992882;28;20391;-66
2021/04/09 01:39:23;;;;;;;16.48;12.18;;;5.80;75.80;;;;;;4992007;28;20029;-65
2021/04/09 01:41:52;;;;;;;17.67;11.73;;;5.80;75.90;;;;;;4991933;28;20018;-65
2021/04/09 01:44:21;;;;;;;17.23;11.32;;;5.80;75.80;;;;;;4993030;28;20018;-65
2021/04/09 01:46:52;;;;;;;17.10;11.32;;;5.80;75.70;;;;;;4992293;28;20050;-66
2021/04/09 01:49:19;;;;;;;16.65;12.10;;;5.80;75.50;;;;;;4992283;28;20030;-65
2021/04/09 01:51:45;;;;;;;15.30;11.95;;;5.80;75.80;;;;;;4992449;28;20367;-65
2021/04/09 01:54:12;;;;;;;17.50;11.95;;;5.80;75.70;;;;;;4991680;28;20030;-68
2021/04/09 01:56:39;;;;;;;15.85;12.43;;;5.80;75.60;;;;;;4993931;28;20069;-69
2021/04/09 01:59:06;;;;;;;20.40;12.00;;;5.90;76.00;;;;;;4996567;28;20035;-67
2021/04/09 02:01:33;;;;;;;15.05;12.10;;;5.90;77.00;;;;;;4995954;28;20081;-68
2021/04/09 02:04:00;;;;;;;19.52;12.38;;;5.80;76.40;;;;;;4996239;28;20027;-68
2021/04/09 02:06:25;;;;;;;20.02;11.82;;;5.80;76.50;;;;;;4996647;28;20492;-67
2021/04/09 02:08:52;;;;;;;18.33;12.00;;;5.80;76.50;;;;;;4994353;28;20034;-66
2021/04/09 02:11:18;;;;;;;16.77;11.27;;;5.80;76.80;;;;;;4996699;28;20022;-69
2021/04/09 02:13:44;;;;;;;17.13;12.45;;;5.70;76.70;;;;;;4996188;28;20045;-66
2021/04/09 02:16:10;;;;;;;17.40;11.75;;;5.70;77.00;;;;;;4995949;28;20026;-68
2021/04/09 02:18:36;;;;;;;21.13;12.48;;;5.70;77.00;;;;;;4996273;28;20022;-66
2021/04/09 02:21:03;;;;;;;14.90;12.02;;;5.70;76.90;;;;;;4996143;28;20194;-68
2021/04/09 02:23:29;;;;;;;18.38;12.60;;;5.70;76.80;;;;;;4995717;28;20030;-65
2021/04/09 02:25:59;;;;;;;19.60;13.80;;;5.70;77.00;;;;;;4996045;28;20104;-68
2021/04/09 02:28:29;;;;;;;19.45;12.60;;;5.70;77.10;;;;;;4996251;28;20030;-65
2021/04/09 02:31:06;;;;;;;16.52;12.27;;;5.70;77.30;;;;;;4995110;28;20496;-66
2021/04/09 02:33:35;;;;;;;18.65;12.02;;;5.70;77.30;;;;;;4996191;28;20359;-70
2021/04/09 02:36:12;;;;;;;19.23;11.77;;;5.80;77.60;;;;;;4995835;28;20102;-68
2021/04/09 02:38:41;;;;;;;15.45;12.40;;;5.80;78.10;;;;;;4995296;28;20031;-67
2021/04/09 02:41:07;;;;;;;19.98;11.98;;;5.70;77.80;;;;;;4995715;28;20022;-69
2021/04/09 02:43:33;;;;;;;16.92;12.27;;;5.70;77.90;;;;;;4994699;28;20023;-68
2021/04/09 02:45:59;;;;;;;17.35;12.50;;;5.70;78.00;;;;;;4995450;28;20030;-69
2021/04/09 02:48:31;;;;;;;19.77;13.20;;;5.70;78.30;;;;;;4995939;28;20498;-67
2021/04/09 02:50:59;;;;;;;18.00;13.15;;;5.80;78.30;;;;;;4994969;28;20027;-67
2021/04/09 02:53:30;;;;;;;23.02;13.48;;;5.80;78.20;;;;;;4995866;28;20050;-69
2021/04/09 02:55:57;;;;;;;18.38;13.13;;;5.80;78.20;;;;;;4995499;28;20058;-68
2021/04/09 02:58:24;;;;;;;19.23;13.07;;;5.80;78.20;;;;;;4995072;28;20534;-69
2021/04/09 03:00:52;;;;;;;19.80;13.38;;;5.80;78.30;;;;;;4995357;28;20125;-66
2021/04/09 03:03:18;;;;;;;22.65;14.25;;;5.80;78.10;;;;;;4995749;28;20101;-65
2021/04/09 03:05:47;;;;;;;22.40;13.68;;;5.80;78.00;;;;;;4994705;28;20057;-66
2021/04/09 03:08:13;;;;;;;21.73;13.95;;;5.80;77.90;;;;;;4993072;28;20046;-67
2021/04/09 03:10:40;;;;;;;22.50;14.75;;;5.80;77.80;;;;;;4995454;28;20018;-68
2021/04/09 03:13:06;;;;;;;20.50;14.02;;;5.80;77.40;;;;;;4994348;28;20070;-67
2021/04/09 03:15:37;;;;;;;21.42;14.05;;;5.90;77.70;;;;;;4995326;28;20544;-68
2021/04/09 03:18:07;;;;;;;24.23;13.83;;;5.90;77.60;;;;;;4995088;28;20022;-67
2021/04/09 03:20:32;;;;;;;19.15;12.35;;;5.90;77.60;;;;;;4994658;28;20509;-65
2021/04/09 03:22:58;;;;;;;19.38;13.48;;;5.90;78.50;;;;;;4995002;28;20030;-65
2021/04/09 03:25:24;;;;;;;29.83;14.70;;;5.90;78.10;;;;;;4995436;28;20422;-65
2021/04/09 03:27:49;;;;;;;20.55;13.82;;;5.90;78.30;;;;;;4993750;28;20026;-65
2021/04/09 03:30:17;;;;;;;22.15;14.40;;;6.00;78.20;;;;;;4995279;28;20034;-66
2021/04/09 03:32:42;;;;;;;23.10;13.88;;;6.00;78.10;;;;;;4993737;28;20031;-66
2021/04/09 03:35:08;;;;;;;21.83;12.85;;;6.00;78.00;;;;;;4992994;28;20038;-66
2021/04/09 03:37:34;;;;;;;22.60;14.15;;;6.00;78.00;;;;;;4994946;28;20475;-66
2021/04/09 03:39:59;;;;;;;26.02;13.95;;;6.00;78.20;;;;;;4993833;28;20093;-65
2021/04/09 03:42:25;;;;;;;19.88;14.20;;;6.00;78.00;;;;;;4994893;28;20054;-65
2021/04/09 03:44:51;;;;;;;22.70;13.30;;;6.00;78.00;;;;;;4994340;28;20057;-65
2021/04/09 03:47:16;;;;;;;18.98;12.13;;;6.00;78.00;;;;;;4993855;28;20461;-65
2021/04/09 03:49:42;;;;;;;18.95;12.35;;;6.00;77.80;;;;;;4994785;28;20471;-65
2021/04/09 03:52:07;;;;;;;20.75;13.20;;;6.00;78.30;;;;;;4994428;28;20026;-69
2021/04/09 03:54:33;;;;;;;17.50;12.73;;;6.00;78.70;;;;;;4994119;28;20022;-66
2021/04/09 03:56:59;;;;;;;21.35;12.02;;;6.00;78.80;;;;;;4994358;28;20022;-66
2021/04/09 03:59:24;;;;;;;18.42;12.82;;;5.90;78.70;;;;;;4994705;28;20046;-70
2021/04/09 04:01:50;;;;;;;23.90;12.57;;;5.90;78.80;;;;;;4992236;28;20035;-67
2021/04/09 04:04:16;;;;;;;22.15;13.45;;;5.90;78.70;;;;;;4994668;28;20029;-67
2021/04/09 04:06:41;;;;;;;25.58;13.80;;;5.80;78.60;;;;;;4994412;28;20026;-66
2021/04/09 04:09:07;;;;;;;19.65;12.88;;;5.80;78.60;;;;;;4993519;28;20066;-66
2021/04/09 04:11:33;;;;;;;18.70;12.35;;;5.80;78.40;;;;;;4994346;28;20114;-66
2021/04/09 04:13:58;;;;;;;20.05;12.75;;;5.80;78.40;;;;;;4992833;28;20505;-65
2021/04/09 04:16:25;;;;;;;19.95;12.05;;;5.80;78.50;;;;;;4993558;28;20037;-66
2021/04/09 04:18:50;;;;;;;15.88;11.52;;;5.80;78.60;;;;;;4993560;28;20033;-66
2021/04/09 04:21:16;;;;;;;18.08;11.70;;;5.80;78.40;;;;;;4994284;28;20022;-66
2021/04/09 04:23:41;;;;;;;16.38;11.75;;;5.80;78.30;;;;;;4992104;28;20390;-66
2021/04/09 04:26:07;;;;;;;16.20;11.15;;;5.80;78.50;;;;;;4993760;28;20018;-67
2021/04/09 04:28:32;;;;;;;21.08;11.82;;;5.90;78.80;;;;;;4994050;28;20042;-69
2021/04/09 04:30:59;;;;;;;19.50;11.02;;;5.80;78.70;;;;;;4991876;28;20018;-68
2021/04/09 04:33:25;;;;;;;18.95;11.73;;;5.80;78.70;;;;;;4992759;28;20129;-67
2021/04/09 04:35:51;;;;;;;18.88;12.05;;;5.80;78.70;;;;;;4993594;28;20149;-69
2021/04/09 04:38:17;;;;;;;15.55;10.82;;;5.80;78.90;;;;;;4992099;28;20110;-65
2021/04/09 04:40:44;;;;;;;16.98;11.82;;;5.80;79.00;;;;;;4992430;28;20026;-67
2021/04/09 04:43:10;;;;;;;19.10;12.10;;;5.70;79.00;;;;;;4993893;28;20019;-68
2021/04/09 04:45:35;;;;;;;20.05;11.38;;;5.70;79.40;;;;;;4993034;28;20069;-65
2021/04/09 04:48:01;;;;;;;17.05;12.18;;;5.70;79.50;;;;;;4993139;28;20058;-67
2021/04/09 04:50:27;;;;;;;14.40;11.82;;;5.70;79.70;;;;;;4993007;28;20022;-67
2021/04/09 04:52:52;;;;;;;14.75;10.90;;;5.70;79.70;;;;;;4993249;28;20522;-66
2021/04/09 04:55:18;;;;;;;15.50;11.02;;;5.70;79.80;;;;;;4993746;28;20026;-70
2021/04/09 04:57:43;;;;;;;17.02;10.95;;;5.80;79.90;;;;;;4991501;28;20462;-68
2021/04/09 05:00:09;;;;;;;19.02;11.63;;;5.70;79.50;;;;;;4993404;28;20034;-69
2021/04/09 05:02:35;;;;;;;16.40;11.32;;;5.80;79.40;;;;;;4993009;28;20026;-69
2021/04/09 05:05:00;;;;;;;17.95;11.85;;;5.80;79.40;;;;;;4992492;28;20031;-67
2021/04/09 05:07:27;;;;;;;20.38;12.45;;;5.80;79.50;;;;;;4993323;28;20022;-66
2021/04/09 05:09:52;;;;;;;20.45;11.60;;;5.80;79.80;;;;;;4992872;28;20467;-66
2021/04/09 05:12:18;;;;;;;18.52;11.50;;;5.80;79.70;;;;;;4992682;28;20037;-66
2021/04/09 05:14:43;;;;;;;18.15;11.82;;;5.80;80.20;;;;;;4992888;28;20132;-66
2021/04/09 05:17:09;;;;;;;16.20;11.00;;;5.80;80.30;;;;;;4992921;28;20022;-66
2021/04/09 05:19:34;;;;;;;18.38;11.43;;;5.80;80.40;;;;;;4992841;28;20046;-67
2021/04/09 05:22:00;;;;;;;16.80;11.70;;;5.80;80.60;;;;;;4992282;28;20053;-67
2021/04/09 05:24:26;;;;;;;15.80;12.35;;;5.80;80.40;;;;;;4993176;28;20030;-65
2021/04/09 05:26:51;;;;;;;17.10;11.57;;;5.80;80.40;;;;;;4990580;28;20037;-65
2021/04/09 05:29:17;;;;;;;16.30;11.27;;;5.80;80.10;;;;;;4993204;28;20386;-68
2021/04/09 05:31:42;;;;;;;16.35;11.30;;;5.80;80.00;;;;;;4992265;28;20074;-66
2021/04/09 05:34:08;;;;;;;15.57;11.55;;;5.80;79.90;;;;;;4992057;28;20474;-66
2021/04/09 05:36:33;;;;;;;18.33;11.52;;;5.90;79.90;;;;;;4992591;28;20069;-69
2021/04/09 05:38:59;;;;;;;14.95;11.65;;;5.90;80.00;;;;;;4992777;28;20034;-69
2021/04/09 05:41:24;;;;;;;18.33;11.25;;;5.90;79.90;;;;;;4992003;28;20044;-69
2021/04/09 05:43:50;;;;;;;20.98;11.27;;;5.90;80.00;;;;;;4992610;28;20469;-69
2021/04/09 05:46:16;;;;;;;15.70;10.80;;;6.00;80.30;;;;;;4991370;28;20069;-69
2021/04/09 05:48:42;;;;;;;14.77;10.90;;;6.00;80.10;;;;;;4992086;28;20125;-69
2021/04/09 05:51:07;;;;;;;15.32;11.52;;;6.00;79.60;;;;;;4992635;28;20022;-67
2021/04/09 05:53:33;;;;;;;16.80;11.13;;;6.00;79.60;;;;;;4992490;28;20434;-66
2021/04/09 05:55:59;;;;;;;17.40;11.85;;;6.00;79.60;;;;;;4992445;28;20014;-66
2021/04/09 05:58:25;;;;;;;14.48;10.82;;;6.10;79.70;;;;;;4992425;28;20546;-68
2021/04/09 06:00:51;;;;;;;13.65;10.35;;;6.10;79.80;;;;;;4991718;28;20030;-68
2021/04/09 06:03:16;;;;;;;18.35;10.70;;;6.10;79.70;;;;;;4992475;28;20390;-66
2021/04/09 06:05:42;;;;;;;18.83;11.80;;;6.10;79.40;;;;;;4992370;28;20022;-68
2021/04/09 06:08:10;;;;;;;14.05;10.77;;;6.20;79.30;;;;;;4991850;28;20018;-67
2021/04/09 06:10:36;;;;;;;16.48;12.07;;;6.20;79.00;;;;;;4992790;28;20030;-65
2021/04/09 06:13:02;;;;;;;13.10;10.15;;;6.30;78.90;;;;;;4990830;28;20042;-65
2021/04/09 06:15:29;;;;;;;12.50;10.43;;;6.30;78.80;;;;;;4990776;28;20022;-65
2021/04/09 06:17:55;;;;;;;17.83;11.25;;;6.40;78.70;;;;;;4990847;28;20474;-65
2021/04/09 06:20:21;;;;;;;16.30;10.30;;;6.50;78.50;;;;;;4992360;28;20027;-67
2021/04/09 06:22:47;;;;;;;18.15;10.02;;;6.60;78.10;;;;;;4991544;28;20027;-66
2021/04/09 06:25:13;;;;;;;17.92;11.00;;;6.70;77.80;;;;;;4992952;28;20018;-65
2021/04/09 06:27:39;;;;;;;17.02;10.82;;;6.80;77.90;;;;;;4992286;28;20027;-65
2021/04/09 06:30:06;;;;;;;14.88;10.30;;;6.90;77.20;;;;;;4990070;28;20033;-65
2021/04/09 06:32:31;;;;;;;13.10;10.07;;;7.00;76.50;;;;;;4990962;28;20462;-66
2021/04/09 06:34:57;;;;;;;14.60;10.38;;;7.10;76.20;;;;;;4989975;28;20038;-66
2021/04/09 06:37:23;;;;;;;16.58;10.57;;;7.20;75.90;;;;;;4991952;28;20018;-67
2021/04/09 06:39:48;;;;;;;14.95;10.75;;;7.30;75.70;;;;;;4991861;28;20022;-67
2021/04/09 06:42:18;;;;;;;14.13;10.68;;;7.40;75.40;;;;;;4993075;28;20352;-66
2021/04/09 06:44:48;;;;;;;16.55;11.02;;;7.50;75.40;;;;;;4993575;28;20062;-65
2021/04/09 06:47:14;;;;;;;14.20;10.95;;;7.50;75.20;;;;;;4995633;28;20513;-66
2021/04/09 06:49:40;;;;;;;14.35;10.43;;;7.60;75.20;;;;;;4995278;28;20034;-66
2021/04/09 06:52:08;;;;;;;18.85;9.88;;;7.70;74.70;;;;;;4994703;28;20030;-66
2021/04/09 06:54:35;;;;;;;16.60;10.07;;;7.70;74.70;;;;;;4995749;28;20038;-68
2021/04/09 06:57:03;;;;;;;13.25;10.23;;;7.80;74.40;;;;;;4994502;28;20101;-65
2021/04/09 06:59:32;;;;;;;16.20;10.00;;;7.90;74.10;;;;;;4995729;28;20437;-68
2021/04/09 07:02:01;;;;;;;15.10;9.98;;;8.00;73.50;;;;;;4995447;28;20022;-67
2021/04/09 07:04:27;;;;;;;10.90;9.18;;;8.20;73.30;;;;;;4994999;28;20352;-65
2021/04/09 07:06:52;;;;;;;14.82;9.20;;;8.20;72.90;;;;;;4993474;28;20033;-66
2021/04/09 07:09:18;;;;;;;13.00;8.77;;;8.20;73.10;;;;;;4995837;28;20025;-65
2021/04/09 07:11:51;;;;;;;13.13;9.73;;;8.20;72.80;;;;;;4994521;28;20534;-66
2021/04/09 07:14:18;;;;;;;11.35;9.23;;;8.20;72.90;;;;;;4995230;28;20030;-65
2021/04/09 07:17:03;;;;;;;12.75;10.18;;;8.20;73.10;;;;;;4993848;28;20053;-66
2021/04/09 07:19:35;;;;;;;13.50;9.30;;;8.20;73.00;;;;;;4994569;28;20022;-65
2021/04/09 07:22:03;;;;;;;14.73;9.15;;;8.30;73.00;;;;;;4993726;28;20022;-66
2021/04/09 07:24:28;;;;;;;12.18;9.60;;;8.40;73.40;;;;;;4995410;28;20032;-66
2021/04/09 07:26:55;;;;;;;14.38;10.25;;;8.40;73.10;;;;;;4993522;28;20109;-64
2021/04/09 07:29:40;;;;;;;11.98;8.63;;;8.50;72.90;;;;;;4995266;28;20035;-67
2021/04/09 07:32:09;;;;;;;15.10;8.85;;;8.60;72.90;;;;;;4993129;28;20030;-67
2021/04/09 07:34:53;;;;;;;12.85;8.45;;;8.70;72.60;;;;;;4993480;28;20121;-66
2021/04/09 07:37:20;;;;;;;11.25;8.85;;;9.00;72.00;;;;;;4995117;28;20034;-66
2021/04/09 07:39:46;;;;;;;10.50;9.15;;;9.10;71.80;;;;;;4993377;28;20054;-66
2021/04/09 07:42:12;;;;;;;11.40;8.85;;;9.30;71.40;;;;;;4993546;28;20046;-66
2021/04/09 07:44:39;;;;;;;13.25;8.32;;;9.50;71.30;;;;;;4995057;28;20018;-69
2021/04/09 07:47:15;;;;;;;15.07;8.13;;;9.50;70.60;;;;;;4993690;28;20034;-66
2021/04/09 07:49:42;;;;;;;9.07;7.93;;;9.60;70.10;;;;;;4994162;28;20062;-65
2021/04/09 07:52:12;;;;;;;10.90;8.60;;;9.60;69.90;;;;;;4991640;28;20026;-66
2021/04/09 07:54:38;;;;;;;14.68;8.68;;;9.60;70.00;;;;;;4992246;28;20038;-68
2021/04/09 07:57:05;;;;;;;15.98;8.20;;;9.60;70.10;;;;;;4991978;28;20105;-67
2021/04/09 07:59:45;;;;;;;10.88;8.80;;;9.70;70.30;;;;;;4993450;28;20026;-65
2021/04/09 08:02:12;;;;;;;13.98;8.90;;;9.90;69.80;;;;;;4993866;28;20490;-70
2021/04/09 08:04:39;;;;;;;12.02;8.85;;;10.00;69.50;;;;;;4994085;28;20184;-66
2021/04/09 08:07:05;;;;;;;12.32;8.00;;;10.10;69.60;;;;;;4993930;28;20037;-67
2021/04/09 08:09:47;;;;;;;12.25;8.82;;;10.20;69.40;;;;;;4993686;28;20022;-66
2021/04/09 08:12:30;;;;;;;11.07;8.63;;;10.20;69.50;;;;;;4993489;28;20116;-66
2021/04/09 08:14:56;;;;;;;9.32;8.00;;;10.30;69.80;;;;;;4993280;28;20034;-66
2021/04/09 08:17:24;;;;;;;9.95;7.80;;;10.40;69.70;;;;;;4993648;28;20083;-66
2021/04/09 08:19:54;;;;;;;16.38;8.85;;;10.50;70.10;;;;;;4993531;28;20499;-65
2021/04/09 08:22:23;;;;;;;12.30;8.02;;;10.60;69.60;;;;;;4993501;28;20018;-68
2021/04/09 08:24:49;;;;;;;13.75;8.00;;;10.60;69.90;;;;;;4993515;28;20038;-70
2021/04/09 08:27:16;;;;;;;10.93;7.90;;;10.50;69.90;;;;;;4992841;28;20022;-68
2021/04/09 08:29:43;;;;;;;9.93;8.20;;;10.50;70.00;;;;;;4993194;28;20352;-67
2021/04/09 08:32:15;;;;;;;9.30;7.53;;;10.30;70.30;;;;;;4992170;28;20117;-66
2021/04/09 08:34:41;;;;;;;11.40;8.88;;;10.30;70.90;;;;;;4993889;28;20474;-66
2021/04/09 08:37:07;;;;;;;13.35;8.93;;;10.40;71.10;;;;;;4993118;28;20031;-69
2021/04/09 08:39:33;;;;;;;13.40;9.05;;;10.60;71.00;;;;;;4993801;28;20026;-69
2021/04/09 08:41:59;;;;;;;11.07;8.38;;;10.80;70.50;;;;;;4993492;28;20027;-69
2021/04/09 08:44:25;;;;;;;11.45;8.38;;;10.90;69.90;;;;;;4993155;28;20148;-71
2021/04/09 08:46:51;;;;;;;10.85;7.88;;;11.10;70.00;;;;;;4991962;28;20080;-70
2021/04/09 08:49:17;;;;;;;11.52;8.52;;;11.30;69.60;;;;;;4993012;28;20038;-71
2021/04/09 08:51:44;;;;;;;14.02;8.20;;;11.40;68.80;;;;;;4992927;28;20101;-69
2021/04/09 08:54:22;;;;;;;10.73;8.05;;;11.50;68.30;;;;;;4986209;28;20514;-72
2021/04/09 08:56:48;;;;;;;11.00;8.43;;;11.70;67.70;;;;;;4986881;28;20022;-71
2021/04/09 08:59:14;;;;;;;14.93;7.88;;;11.80;67.30;;;;;;4990343;28;20033;-68
2021/04/09 09:01:40;;;;;;;11.18;7.55;;;11.90;67.80;;;;;;4992119;28;20018;-70
2021/04/09 09:04:21;;;;;;;11.27;7.90;;;11.90;67.00;;;;;;4991713;28;20029;-68
2021/04/09 09:06:48;;;;;;;15.93;8.43;;;12.10;66.80;;;;;;4991040;28;20022;-69
2021/04/09 09:09:30;;;;;;;9.02;7.45;;;12.20;66.10;;;;;;4992844;28;20022;-68
2021/04/09 09:12:02;;;;;;;9.80;7.13;;;12.20;65.70;;;;;;4991528;28;20117;-71
2021/04/09 09:14:33;;;;;;;9.32;7.20;;;12.30;65.80;;;;;;4992179;28;20565;-66
2021/04/09 09:17:17;;;;;;;;;;;12.30;66.00;;;;;;4991278;28;20451;-67
2021/04/09 09:20:05;;;;;;;10.68;7.15;;;12.30;66.00;;;;;;4990865;28;20467;-69
2021/04/09 09:22:44;;;;;;;13.95;7.32;;;12.20;65.70;;;;;;4974698;28;20022;-70
2021/04/09 09:25:10;;;;;;;8.02;7.18;;;12.30;66.10;;;;;;4991626;28;20029;-69
2021/04/09 09:27:52;;;;;;;10.27;6.97;;;12.30;65.90;;;;;;4992369;28;20026;-72
2021/04/09 09:30:37;;;;;;;11.65;7.68;;;12.30;65.00;;;;;;4990629;28;20042;-70
2021/04/09 09:33:21;;;;;;;8.93;6.78;;;12.20;65.80;;;;;;4991177;28;20116;-75
2021/04/09 09:36:09;;;;;;;10.43;7.13;;;12.20;65.80;;;;;;4991649;28;20057;-74
2021/04/09 09:38:49;;;;;;;10.05;7.30;;;12.30;65.60;;;;;;4992193;28;20431;-72
2021/04/09 09:41:33;;;;;;;13.70;7.35;;;12.60;65.00;;;;;;4990336;28;20030;-73
2021/04/09 09:43:59;;;;;;;10.13;7.82;;;12.80;64.60;;;;;;4990069;28;20031;-70
2021/04/09 09:46:53;;;;;;;11.35;7.82;;;12.90;64.30;;;;;;4991563;28;20030;-70
2021/04/09 09:49:23;;;;;;;7.40;6.55;;;12.90;64.10;;;;;;4991918;28;20050;-77
2021/04/09 09:51:49;;;;;;;9.85;7.22;;;13.00;63.30;;;;;;4991332;28;20443;-74
2021/04/09 09:54:26;;;;;;;11.20;7.15;;;12.90;63.50;;;;;;4991451;28;20030;-78
2021/04/09 09:56:52;;;;;;;10.27;6.57;;;13.00;63.10;;;;;;4991964;28;20026;-74
2021/04/09 09:59:22;;;;;;;7.00;5.75;;;13.00;61.80;;;;;;4992135;28;20033;-77
2021/04/09 10:01:49;;;;;;;9.73;5.38;;;13.00;62.10;;;;;;4990350;28;20113;-72
2021/04/09 10:04:16;;;;;;;7.43;5.10;;;13.10;61.50;;;;;;4987956;28;20461;-75
2021/04/09 10:06:46;;;;;;;7.63;5.20;;;13.10;61.10;;;;;;4990694;28;20027;-71
2021/04/09 10:09:12;;;;;;;7.97;4.90;;;13.10;60.80;;;;;;4991254;28;20446;-76
2021/04/09 10:11:44;;;;;;;6.25;4.68;;;13.10;60.70;;;;;;4990239;28;20478;-81
2021/04/09 10:14:10;;;;;;;7.38;5.30;;;13.10;60.90;;;;;;4990211;28;20446;-73
2021/04/09 10:16:36;;;;;;;6.60;5.05;;;13.20;60.80;;;;;;4991721;28;20015;-70
2021/04/09 10:19:07;;;;;;;6.28;4.85;;;13.10;60.80;;;;;;4993495;28;20034;-73
2021/04/09 10:21:35;;;;;;;8.02;5.28;;;13.10;60.70;;;;;;4992993;28;20019;-75
2021/04/09 10:24:06;;;;;;;7.88;5.47;;;13.10;61.30;;;;;;4995168;28;20045;-70
2021/04/09 10:26:33;;;;;;;7.53;5.20;;;13.10;61.50;;;;;;4995916;28;20030;-75
2021/04/09 10:28:59;;;;;;;8.50;4.85;;;13.10;61.40;;;;;;4993405;28;20422;-77
2021/04/09 10:31:25;;;;;;;7.18;5.75;;;13.30;61.40;;;;;;4994047;28;20033;-73
2021/04/09 10:33:52;;;;;;;7.35;5.65;;;13.20;61.00;;;;;;4993318;28;20184;-75
2021/04/09 10:36:22;;;;;;;11.02;5.60;;;13.10;61.30;;;;;;4994079;28;20031;-71
2021/04/09 10:38:50;;;;;;;10.60;4.90;;;12.90;61.60;;;;;;4995199;28;20030;-80
2021/04/09 10:41:57;;;;;;;8.13;5.57;;;12.70;62.20;;;;;;4994082;28;20033;-74
2021/04/09 10:44:24;;;;;;;11.85;5.07;;;12.60;63.30;;;;;;4980639;28;20026;-75
2021/04/09 10:46:58;;;;;;;8.60;5.22;;;12.70;63.20;;;;;;4994160;28;20530;-73
2021/04/09 10:49:26;;;;;;;8.52;5.35;;;12.80;62.90;;;;;;4994758;28;20046;-77
2021/04/09 10:51:56;;;;;;;10.95;5.78;;;12.80;62.60;;;;;;4994818;28;20022;-76
2021/04/09 10:54:31;;;;;;;6.93;5.10;;;12.80;62.40;;;;;;4994246;28;20026;-77
2021/04/09 10:57:12;;;;;;;7.43;5.18;;;12.90;62.60;;;;;;4994179;28;20022;-76
2021/04/09 10:59:40;;;;;;;9.15;5.70;;;12.90;61.60;;;;;;4994552;28;20034;-72
2021/04/09 11:02:08;;;;;;;7.50;4.53;;;13.10;61.60;;;;;;4994298;28;20034;-72
2021/04/09 11:04:35;;;;;;;8.50;4.70;;;13.10;60.80;;;;;;4993874;28;20165;-72
2021/04/09 11:07:02;;;;;;;5.40;4.45;;;13.30;61.50;;;;;;4993962;28;20372;-73
2021/04/09 11:09:41;;;;;;;4.97;4.10;;;13.50;60.20;;;;;;4992852;28;20022;-72
2021/04/09 11:12:28;;;;;;;7.03;4.03;;;13.60;58.90;;;;;;4992022;28;20058;-70
2021/04/09 11:15:07;;;;;;;7.40;4.57;;;13.80;58.90;;;;;;4994045;28;20030;-68
2021/04/09 11:17:33;;;;;;;7.80;3.95;;;13.90;60.20;;;;;;4993837;28;20036;-66
2021/04/09 11:20:01;;;;;;;4.95;3.03;;;13.90;58.70;;;;;;4994711;28;20081;-68
2021/04/09 11:22:28;;;;;;;4.45;3.05;;;13.80;58.00;;;;;;4994432;28;20060;-75
2021/04/09 11:25:04;;;;;;;5.38;2.33;;;13.90;56.90;;;;;;4993827;28;20027;-70
2021/04/09 11:27:35;;;;;;;5.97;2.50;;;13.90;56.90;;;;;;4994902;28;20359;-69
2021/04/09 11:30:19;;;;;;;4.90;2.08;;;13.90;56.30;;;;;;4992990;28;20030;-67
2021/04/09 11:32:50;;;;;;;5.10;2.72;;;13.90;55.90;;;;;;4991930;28;20026;-67
2021/04/09 11:35:16;;;;;;;2.63;2.17;;;13.90;56.60;;;;;;4993462;28;20026;-69
2021/04/09 11:37:43;;;;;;;3.33;2.40;;;13.90;56.90;;;;;;4994601;28;20034;-68
2021/04/09 11:40:10;;;;;;;4.68;3.00;;;13.80;56.50;;;;;;4994050;28;20029;-68
2021/04/09 11:42:36;;;;;;;4.15;2.90;;;13.80;56.80;;;;;;4994011;28;20037;-68
2021/04/09 11:45:06;;;;;;;3.83;3.42;;;13.80;57.30;;;;;;4993855;28;20014;-68
2021/04/09 11:47:38;;;;;;;4.03;2.80;;;14.00;57.30;;;;;;4993571;28;20030;-70
2021/04/09 11:50:21;;;;;;;4.63;2.67;;;14.20;56.80;;;;;;4993927;28;20034;-69
2021/04/09 11:53:02;;;;;;;3.55;2.70;;;14.30;55.90;;;;;;4992355;28;20547;-69
2021/04/09 11:55:38;;;;;;;4.80;2.80;;;14.20;55.10;;;;;;4994485;28;20049;-67
2021/04/09 11:58:17;;;;;;;6.20;3.67;;;14.00;55.50;;;;;;4992417;28;20113;-69
2021/04/09 12:00:56;;;;;;;4.75;3.47;;;13.90;56.00;;;;;;4992076;28;20018;-71
2021/04/09 12:03:39;;;;;;;3.83;2.70;;;13.70;56.40;;;;;;4992343;28;20483;-69
2021/04/09 12:06:16;;;;;;;5.15;2.80;;;13.50;57.20;;;;;;4992533;28;20046;-74
2021/04/09 12:08:43;;;;;;;2.78;2.40;;;13.30;58.20;;;;;;4993332;28;20022;-68
2021/04/09 12:11:10;;;;;;;4.50;2.60;;;13.20;57.80;;;;;;4993849;28;20019;-68
2021/04/09 12:13:37;;;;;;;2.50;2.28;;;13.20;57.80;;;;;;4992497;28;20036;-70
2021/04/09 12:16:04;;;;;;;6.28;2.55;;;13.40;58.30;;;;;;4993921;28;20057;-66
2021/04/09 12:18:29;;;;;;;4.35;2.72;;;13.60;58.00;;;;;;4993685;28;20026;-72
2021/04/09 12:20:55;;;;;;;2.65;2.42;;;13.90;56.70;;;;;;4992647;28;20026;-71
2021/04/09 12:23:21;;;;;;;5.07;2.95;;;14.20;55.10;;;;;;4991796;28;20041;-70
2021/04/09 12:25:46;;;;;;;5.22;2.95;;;14.40;54.80;;;;;;4992994;28;20105;-67
2021/04/09 12:28:12;;;;;;;3.10;2.22;;;14.60;56.00;;;;;;4991667;28;20031;-71
2021/04/09 12:30:37;;;;;;;3.75;2.30;;;14.90;54.00;;;;;;4993476;28;20026;-70
2021/04/09 12:33:03;;;;;;;3.60;2.55;;;15.00;53.30;;;;;;4993283;28;20038;-68
2021/04/09 12:35:29;;;;;;;3.00;2.40;;;15.20;53.10;;;;;;4993340;28;20375;-73
2021/04/09 12:37:54;;;;;;;4.40;3.28;;;15.50;53.60;;;;;;4993273;28;20045;-71
2021/04/09 12:40:22;;;;;;;5.07;2.63;;;15.60;51.90;;;;;;4993456;28;20026;-75
2021/04/09 12:42:48;;;;;;;3.58;2.55;;;15.60;52.00;;;;;;4992585;28;20113;-74
2021/04/09 12:45:14;;;;;;;6.32;2.60;;;15.70;51.70;;;;;;4993977;28;20098;-73
2021/04/09 12:47:40;;;;;;;3.65;2.50;;;15.70;50.70;;;;;;4993332;28;20046;-80
2021/04/09 12:50:06;;;;;;;6.22;2.80;;;15.60;50.40;;;;;;4992711;28;20036;-70